sensor_id;sensor_type;location;lat;lon;timestamp;P1;durP1;ratioP1;P2;durP2;ratioP2
21822;SDS011;11074;48.596;9.238;2023-06-14T00:00:52;5.75;;;3.35;;
21822;SDS011;11074;48.596;9.238;2023-06-14T00:03:18;5.50;;;3.50;;
21822;SDS011;11074;48.596;9.238;2023-06-14T00:05:44;4.55;;;3.30;;
21822;SDS011;11074;48.596;9.238;2023-06-14T00:08:11;5.35;;;3.33;;
21822;SDS011;11074;48.596;9.238;2023-06-14T00:10:38;6.95;;;3.40;;
21822;SDS011;11074;48.596;9.238;2023-06-14T00:13:06;6.05;;;3.72;;
21822;SDS011;11074;48.596;9.238;2023-06-14T00:15:35;6.60;;;2.80;;
21822;SDS011;11074;48.596;9.238;2023-06-14T00:18:01;5.80;;;3.50;;
21822;SDS011;11074;48.596;9.238;2023-06-14T00:20:28;7.05;;;3.40;;
21822;SDS011;11074;48.596;9.238;2023-06-14T00:22:57;6.18;;;3.60;;
21822;SDS011;11074;48.596;9.238;2023-06-14T00:25:26;4.70;;;3.42;;
21822;SDS011;11074;48.596;9.238;2023-06-14T00:27:53;4.70;;;3.38;;
21822;SDS011;11074;48.596;9.238;2023-06-14T00:30:22;5.10;;;3.38;;
21822;SDS011;11074;48.596;9.238;2023-06-14T00:32:49;4.85;;;3.20;;
21822;SDS011;11074;48.596;9.238;2023-06-14T00:35:15;7.05;;;3.85;;
21822;SDS011;11074;48.596;9.238;2023-06-14T00:37:41;5.35;;;3.60;;
21822;SDS011;11074;48.596;9.238;2023-06-14T00:40:06;5.32;;;3.40;;
21822;SDS011;11074;48.596;9.238;2023-06-14T00:42:32;6.30;;;3.28;;
21822;SDS011;11074;48.596;9.238;2023-06-14T00:44:59;6.07;;;3.65;;
21822;SDS011;11074;48.596;9.238;2023-06-14T00:47:25;6.35;;;3.60;;
21822;SDS011;11074;48.596;9.238;2023-06-14T00:49:52;5.75;;;3.70;;
21822;SDS011;11074;48.596;9.238;2023-06-14T00:52:20;6.43;;;3.55;;
21822;SDS011;11074;48.596;9.238;2023-06-14T00:54:45;4.75;;;3.55;;
21822;SDS011;11074;48.596;9.238;2023-06-14T00:57:12;4.93;;;3.42;;
21822;SDS011;11074;48.596;9.238;2023-06-14T00:59:41;7.25;;;3.13;;
21822;SDS011;11074;48.596;9.238;2023-06-14T01:02:09;5.72;;;3.15;;
21822;SDS011;11074;48.596;9.238;2023-06-14T01:04:36;6.43;;;3.85;;
21822;SDS011;11074;48.596;9.238;2023-06-14T01:07:15;10.27;;;3.53;;
21822;SDS011;11074;48.596;9.238;2023-06-14T01:09:58;5.80;;;3.88;;
21822;SDS011;11074;48.596;9.238;2023-06-14T01:12:53;5.43;;;3.78;;
21822;SDS011;11074;48.596;9.238;2023-06-14T01:15:44;5.25;;;3.47;;
21822;SDS011;11074;48.596;9.238;2023-06-14T01:18:12;5.85;;;3.60;;
21822;SDS011;11074;48.596;9.238;2023-06-14T01:20:44;5.05;;;3.28;;
21822;SDS011;11074;48.596;9.238;2023-06-14T01:23:18;7.00;;;3.70;;
21822;SDS011;11074;48.596;9.238;2023-06-14T01:25:46;6.18;;;3.72;;
21822;SDS011;11074;48.596;9.238;2023-06-14T01:28:17;7.20;;;3.67;;
21822;SDS011;11074;48.596;9.238;2023-06-14T01:30:47;5.35;;;3.00;;
21822;SDS011;11074;48.596;9.238;2023-06-14T01:33:21;5.47;;;3.60;;
21822;SDS011;11074;48.596;9.238;2023-06-14T01:35:51;4.47;;;3.50;;
21822;SDS011;11074;48.596;9.238;2023-06-14T01:38:20;3.75;;;3.20;;
21822;SDS011;11074;48.596;9.238;2023-06-14T01:40:50;5.70;;;3.20;;
21822;SDS011;11074;48.596;9.238;2023-06-14T01:43:20;5.57;;;3.40;;
21822;SDS011;11074;48.596;9.238;2023-06-14T01:45:47;5.88;;;3.97;;
21822;SDS011;11074;48.596;9.238;2023-06-14T01:48:16;5.25;;;3.47;;
21822;SDS011;11074;48.596;9.238;2023-06-14T01:50:43;5.53;;;3.63;;
21822;SDS011;11074;48.596;9.238;2023-06-14T01:53:09;5.82;;;3.35;;
21822;SDS011;11074;48.596;9.238;2023-06-14T01:55:35;5.85;;;3.75;;
21822;SDS011;11074;48.596;9.238;2023-06-14T01:58:04;4.97;;;3.40;;
21822;SDS011;11074;48.596;9.238;2023-06-14T02:00:30;6.32;;;3.53;;
21822;SDS011;11074;48.596;9.238;2023-06-14T02:02:56;7.38;;;4.15;;
21822;SDS011;11074;48.596;9.238;2023-06-14T02:05:22;6.60;;;3.72;;
21822;SDS011;11074;48.596;9.238;2023-06-14T02:07:49;4.53;;;3.33;;
21822;SDS011;11074;48.596;9.238;2023-06-14T02:10:15;6.82;;;3.60;;
21822;SDS011;11074;48.596;9.238;2023-06-14T02:12:42;5.93;;;3.80;;
21822;SDS011;11074;48.596;9.238;2023-06-14T02:15:08;6.93;;;3.75;;
21822;SDS011;11074;48.596;9.238;2023-06-14T02:17:41;6.22;;;3.70;;
21822;SDS011;11074;48.596;9.238;2023-06-14T02:20:12;4.63;;;3.63;;
21822;SDS011;11074;48.596;9.238;2023-06-14T02:22:38;5.88;;;3.92;;
21822;SDS011;11074;48.596;9.238;2023-06-14T02:25:04;7.53;;;4.30;;
21822;SDS011;11074;48.596;9.238;2023-06-14T02:27:31;5.78;;;3.67;;
21822;SDS011;11074;48.596;9.238;2023-06-14T02:29:57;5.30;;;3.55;;
21822;SDS011;11074;48.596;9.238;2023-06-14T02:32:22;4.13;;;3.50;;
21822;SDS011;11074;48.596;9.238;2023-06-14T02:34:48;6.85;;;3.80;;
21822;SDS011;11074;48.596;9.238;2023-06-14T02:37:14;9.20;;;3.85;;
21822;SDS011;11074;48.596;9.238;2023-06-14T02:39:41;5.25;;;4.05;;
21822;SDS011;11074;48.596;9.238;2023-06-14T02:42:07;5.82;;;3.78;;
21822;SDS011;11074;48.596;9.238;2023-06-14T02:44:32;4.80;;;3.90;;
21822;SDS011;11074;48.596;9.238;2023-06-14T02:46:58;5.30;;;4.40;;
21822;SDS011;11074;48.596;9.238;2023-06-14T02:49:25;5.68;;;3.78;;
21822;SDS011;11074;48.596;9.238;2023-06-14T02:51:51;4.85;;;4.03;;
21822;SDS011;11074;48.596;9.238;2023-06-14T02:54:17;6.45;;;4.00;;
21822;SDS011;11074;48.596;9.238;2023-06-14T02:56:43;5.38;;;3.95;;
21822;SDS011;11074;48.596;9.238;2023-06-14T02:59:09;6.85;;;4.22;;
21822;SDS011;11074;48.596;9.238;2023-06-14T03:01:34;7.15;;;4.10;;
21822;SDS011;11074;48.596;9.238;2023-06-14T03:04:03;6.10;;;4.25;;
21822;SDS011;11074;48.596;9.238;2023-06-14T03:06:29;6.82;;;4.20;;
21822;SDS011;11074;48.596;9.238;2023-06-14T03:08:55;6.18;;;3.92;;
21822;SDS011;11074;48.596;9.238;2023-06-14T03:11:25;5.00;;;3.45;;
21822;SDS011;11074;48.596;9.238;2023-06-14T03:13:52;5.70;;;3.90;;
21822;SDS011;11074;48.596;9.238;2023-06-14T03:16:18;6.22;;;3.58;;
21822;SDS011;11074;48.596;9.238;2023-06-14T03:18:45;5.93;;;4.18;;
21822;SDS011;11074;48.596;9.238;2023-06-14T03:21:11;5.50;;;3.42;;
21822;SDS011;11074;48.596;9.238;2023-06-14T03:23:36;6.03;;;3.95;;
21822;SDS011;11074;48.596;9.238;2023-06-14T03:26:02;4.85;;;3.70;;
21822;SDS011;11074;48.596;9.238;2023-06-14T03:28:28;6.18;;;3.90;;
21822;SDS011;11074;48.596;9.238;2023-06-14T03:30:53;5.85;;;3.60;;
21822;SDS011;11074;48.596;9.238;2023-06-14T03:33:19;4.72;;;3.97;;
21822;SDS011;11074;48.596;9.238;2023-06-14T03:35:45;5.25;;;3.85;;
21822;SDS011;11074;48.596;9.238;2023-06-14T03:38:11;5.45;;;4.13;;
21822;SDS011;11074;48.596;9.238;2023-06-14T03:40:37;7.07;;;4.05;;
21822;SDS011;11074;48.596;9.238;2023-06-14T03:43:03;5.40;;;3.92;;
21822;SDS011;11074;48.596;9.238;2023-06-14T03:45:28;6.88;;;3.70;;
21822;SDS011;11074;48.596;9.238;2023-06-14T03:47:54;5.57;;;3.92;;
21822;SDS011;11074;48.596;9.238;2023-06-14T03:50:21;5.38;;;3.70;;
21822;SDS011;11074;48.596;9.238;2023-06-14T03:52:48;6.38;;;4.07;;
21822;SDS011;11074;48.596;9.238;2023-06-14T03:55:14;7.13;;;3.80;;
21822;SDS011;11074;48.596;9.238;2023-06-14T03:57:41;5.68;;;4.30;;
21822;SDS011;11074;48.596;9.238;2023-06-14T04:00:08;6.10;;;4.25;;
21822;SDS011;11074;48.596;9.238;2023-06-14T04:02:34;17.35;;;4.28;;
21822;SDS011;11074;48.596;9.238;2023-06-14T04:05:01;5.65;;;4.00;;
21822;SDS011;11074;48.596;9.238;2023-06-14T04:07:28;4.82;;;3.83;;
21822;SDS011;11074;48.596;9.238;2023-06-14T04:09:54;5.20;;;3.78;;
21822;SDS011;11074;48.596;9.238;2023-06-14T04:12:20;6.43;;;3.92;;
21822;SDS011;11074;48.596;9.238;2023-06-14T04:14:46;6.05;;;3.92;;
21822;SDS011;11074;48.596;9.238;2023-06-14T04:17:12;4.50;;;3.88;;
21822;SDS011;11074;48.596;9.238;2023-06-14T04:19:37;4.93;;;3.72;;
21822;SDS011;11074;48.596;9.238;2023-06-14T04:22:03;5.63;;;3.85;;
21822;SDS011;11074;48.596;9.238;2023-06-14T04:24:29;8.60;;;3.75;;
21822;SDS011;11074;48.596;9.238;2023-06-14T04:26:57;6.50;;;4.00;;
21822;SDS011;11074;48.596;9.238;2023-06-14T04:29:24;5.50;;;3.70;;
21822;SDS011;11074;48.596;9.238;2023-06-14T04:31:53;6.55;;;4.00;;
21822;SDS011;11074;48.596;9.238;2023-06-14T04:34:19;4.43;;;3.58;;
21822;SDS011;11074;48.596;9.238;2023-06-14T04:36:46;5.30;;;4.05;;
21822;SDS011;11074;48.596;9.238;2023-06-14T04:39:18;5.60;;;3.80;;
21822;SDS011;11074;48.596;9.238;2023-06-14T04:41:50;9.25;;;4.13;;
21822;SDS011;11074;48.596;9.238;2023-06-14T04:44:18;5.95;;;3.65;;
21822;SDS011;11074;48.596;9.238;2023-06-14T04:46:45;6.70;;;3.78;;
21822;SDS011;11074;48.596;9.238;2023-06-14T04:49:12;6.80;;;3.58;;
21822;SDS011;11074;48.596;9.238;2023-06-14T04:51:43;8.05;;;4.03;;
21822;SDS011;11074;48.596;9.238;2023-06-14T04:54:10;6.50;;;4.35;;
21822;SDS011;11074;48.596;9.238;2023-06-14T04:56:40;6.53;;;4.07;;
21822;SDS011;11074;48.596;9.238;2023-06-14T04:59:11;7.57;;;4.20;;
21822;SDS011;11074;48.596;9.238;2023-06-14T05:01:37;5.05;;;3.90;;
21822;SDS011;11074;48.596;9.238;2023-06-14T05:04:03;6.15;;;3.72;;
21822;SDS011;11074;48.596;9.238;2023-06-14T05:06:29;6.65;;;4.28;;
21822;SDS011;11074;48.596;9.238;2023-06-14T05:08:55;6.03;;;4.10;;
21822;SDS011;11074;48.596;9.238;2023-06-14T05:11:21;5.43;;;4.35;;
21822;SDS011;11074;48.596;9.238;2023-06-14T05:13:49;5.57;;;3.60;;
21822;SDS011;11074;48.596;9.238;2023-06-14T05:16:16;5.95;;;3.92;;
21822;SDS011;11074;48.596;9.238;2023-06-14T05:18:44;6.07;;;4.32;;
21822;SDS011;11074;48.596;9.238;2023-06-14T05:21:12;6.95;;;4.25;;
21822;SDS011;11074;48.596;9.238;2023-06-14T05:23:38;7.95;;;3.95;;
21822;SDS011;11074;48.596;9.238;2023-06-14T05:26:03;5.60;;;4.22;;
21822;SDS011;11074;48.596;9.238;2023-06-14T05:28:29;7.55;;;4.20;;
21822;SDS011;11074;48.596;9.238;2023-06-14T05:30:55;5.15;;;3.75;;
21822;SDS011;11074;48.596;9.238;2023-06-14T05:33:23;5.82;;;4.07;;
21822;SDS011;11074;48.596;9.238;2023-06-14T05:35:48;5.18;;;4.03;;
21822;SDS011;11074;48.596;9.238;2023-06-14T05:38:14;5.70;;;4.15;;
21822;SDS011;11074;48.596;9.238;2023-06-14T05:40:39;4.93;;;3.65;;
21822;SDS011;11074;48.596;9.238;2023-06-14T05:43:05;8.73;;;4.40;;
21822;SDS011;11074;48.596;9.238;2023-06-14T05:45:31;5.60;;;4.63;;
21822;SDS011;11074;48.596;9.238;2023-06-14T05:47:57;6.32;;;3.63;;
21822;SDS011;11074;48.596;9.238;2023-06-14T05:50:22;6.30;;;4.15;;
21822;SDS011;11074;48.596;9.238;2023-06-14T05:52:48;6.70;;;4.28;;
21822;SDS011;11074;48.596;9.238;2023-06-14T05:55:15;6.13;;;4.40;;
21822;SDS011;11074;48.596;9.238;2023-06-14T05:57:42;5.25;;;4.03;;
21822;SDS011;11074;48.596;9.238;2023-06-14T06:00:08;7.15;;;4.00;;
21822;SDS011;11074;48.596;9.238;2023-06-14T06:02:36;6.10;;;4.55;;
21822;SDS011;11074;48.596;9.238;2023-06-14T06:05:01;6.88;;;4.70;;
21822;SDS011;11074;48.596;9.238;2023-06-14T06:07:28;8.85;;;4.43;;
21822;SDS011;11074;48.596;9.238;2023-06-14T06:09:53;6.40;;;4.45;;
21822;SDS011;11074;48.596;9.238;2023-06-14T06:12:19;5.65;;;4.20;;
21822;SDS011;11074;48.596;9.238;2023-06-14T06:14:45;6.40;;;4.65;;
21822;SDS011;11074;48.596;9.238;2023-06-14T06:17:10;6.45;;;4.40;;
21822;SDS011;11074;48.596;9.238;2023-06-14T06:19:36;6.95;;;4.53;;
21822;SDS011;11074;48.596;9.238;2023-06-14T06:22:02;7.15;;;4.32;;
21822;SDS011;11074;48.596;9.238;2023-06-14T06:24:31;5.57;;;3.80;;
21822;SDS011;11074;48.596;9.238;2023-06-14T06:26:57;5.65;;;4.05;;
21822;SDS011;11074;48.596;9.238;2023-06-14T06:29:22;5.13;;;4.35;;
21822;SDS011;11074;48.596;9.238;2023-06-14T06:31:48;5.45;;;4.28;;
21822;SDS011;11074;48.596;9.238;2023-06-14T06:34:14;6.40;;;4.63;;
21822;SDS011;11074;48.596;9.238;2023-06-14T06:36:39;6.18;;;4.53;;
21822;SDS011;11074;48.596;9.238;2023-06-14T06:39:05;6.00;;;4.50;;
21822;SDS011;11074;48.596;9.238;2023-06-14T06:41:35;7.72;;;4.72;;
21822;SDS011;11074;48.596;9.238;2023-06-14T06:44:04;6.05;;;4.78;;
21822;SDS011;11074;48.596;9.238;2023-06-14T06:46:32;8.52;;;4.97;;
21822;SDS011;11074;48.596;9.238;2023-06-14T06:48:59;6.38;;;4.57;;
21822;SDS011;11074;48.596;9.238;2023-06-14T06:51:25;7.13;;;4.47;;
21822;SDS011;11074;48.596;9.238;2023-06-14T06:53:54;8.40;;;5.10;;
21822;SDS011;11074;48.596;9.238;2023-06-14T06:56:20;7.63;;;5.00;;
21822;SDS011;11074;48.596;9.238;2023-06-14T06:58:48;7.32;;;4.45;;
21822;SDS011;11074;48.596;9.238;2023-06-14T07:01:15;6.93;;;4.43;;
21822;SDS011;11074;48.596;9.238;2023-06-14T07:03:41;6.70;;;4.57;;
21822;SDS011;11074;48.596;9.238;2023-06-14T07:06:08;9.73;;;4.93;;
21822;SDS011;11074;48.596;9.238;2023-06-14T07:08:34;6.07;;;4.43;;
21822;SDS011;11074;48.596;9.238;2023-06-14T07:11:00;7.65;;;4.90;;
21822;SDS011;11074;48.596;9.238;2023-06-14T07:13:27;8.75;;;4.53;;
21822;SDS011;11074;48.596;9.238;2023-06-14T07:15:57;5.93;;;4.38;;
21822;SDS011;11074;48.596;9.238;2023-06-14T07:18:27;6.43;;;4.45;;
21822;SDS011;11074;48.596;9.238;2023-06-14T07:20:53;8.30;;;4.57;;
21822;SDS011;11074;48.596;9.238;2023-06-14T07:23:19;6.80;;;4.32;;
21822;SDS011;11074;48.596;9.238;2023-06-14T07:25:46;6.18;;;4.80;;
21822;SDS011;11074;48.596;9.238;2023-06-14T07:28:11;9.20;;;4.88;;
21822;SDS011;11074;48.596;9.238;2023-06-14T07:30:37;8.07;;;4.10;;
21822;SDS011;11074;48.596;9.238;2023-06-14T07:33:03;7.95;;;4.32;;
21822;SDS011;11074;48.596;9.238;2023-06-14T07:35:28;5.45;;;3.90;;
21822;SDS011;11074;48.596;9.238;2023-06-14T07:37:54;11.18;;;4.60;;
21822;SDS011;11074;48.596;9.238;2023-06-14T07:40:20;7.60;;;4.13;;
21822;SDS011;11074;48.596;9.238;2023-06-14T07:42:45;6.47;;;4.20;;
21822;SDS011;11074;48.596;9.238;2023-06-14T07:45:12;6.20;;;4.25;;
21822;SDS011;11074;48.596;9.238;2023-06-14T07:47:39;8.95;;;4.20;;
21822;SDS011;11074;48.596;9.238;2023-06-14T07:50:05;5.65;;;4.30;;
21822;SDS011;11074;48.596;9.238;2023-06-14T07:52:31;6.72;;;4.63;;
21822;SDS011;11074;48.596;9.238;2023-06-14T07:54:56;5.93;;;4.25;;
21822;SDS011;11074;48.596;9.238;2023-06-14T07:57:23;7.05;;;3.95;;
21822;SDS011;11074;48.596;9.238;2023-06-14T07:59:48;8.25;;;4.32;;
21822;SDS011;11074;48.596;9.238;2023-06-14T08:02:15;7.95;;;4.00;;
21822;SDS011;11074;48.596;9.238;2023-06-14T08:04:40;7.45;;;3.78;;
21822;SDS011;11074;48.596;9.238;2023-06-14T08:07:07;4.43;;;3.22;;
21822;SDS011;11074;48.596;9.238;2023-06-14T08:09:32;6.43;;;3.58;;
21822;SDS011;11074;48.596;9.238;2023-06-14T08:12:00;9.98;;;3.60;;
21822;SDS011;11074;48.596;9.238;2023-06-14T08:14:25;8.40;;;3.72;;
21822;SDS011;11074;48.596;9.238;2023-06-14T08:16:51;5.13;;;3.70;;
21822;SDS011;11074;48.596;9.238;2023-06-14T08:19:17;5.28;;;3.40;;
21822;SDS011;11074;48.596;9.238;2023-06-14T08:21:43;5.32;;;3.42;;
21822;SDS011;11074;48.596;9.238;2023-06-14T08:24:08;5.65;;;3.58;;
21822;SDS011;11074;48.596;9.238;2023-06-14T08:26:37;5.00;;;3.78;;
21822;SDS011;11074;48.596;9.238;2023-06-14T08:29:04;7.65;;;4.20;;
21822;SDS011;11074;48.596;9.238;2023-06-14T08:31:32;6.95;;;3.65;;
21822;SDS011;11074;48.596;9.238;2023-06-14T08:33:58;5.53;;;3.70;;
21822;SDS011;11074;48.596;9.238;2023-06-14T08:36:24;5.85;;;3.88;;
21822;SDS011;11074;48.596;9.238;2023-06-14T08:38:50;9.60;;;3.38;;
21822;SDS011;11074;48.596;9.238;2023-06-14T08:41:20;5.15;;;3.13;;
21822;SDS011;11074;48.596;9.238;2023-06-14T08:43:48;5.45;;;3.47;;
21822;SDS011;11074;48.596;9.238;2023-06-14T08:46:14;6.07;;;3.78;;
21822;SDS011;11074;48.596;9.238;2023-06-14T08:48:46;7.55;;;3.70;;
21822;SDS011;11074;48.596;9.238;2023-06-14T08:51:14;6.32;;;4.43;;
21822;SDS011;11074;48.596;9.238;2023-06-14T08:53:44;8.98;;;4.10;;
21822;SDS011;11074;48.596;9.238;2023-06-14T08:56:10;6.55;;;4.10;;
21822;SDS011;11074;48.596;9.238;2023-06-14T08:58:41;6.10;;;3.92;;
21822;SDS011;11074;48.596;9.238;2023-06-14T09:01:10;6.93;;;4.03;;
21822;SDS011;11074;48.596;9.238;2023-06-14T09:03:41;6.95;;;4.25;;
21822;SDS011;11074;48.596;9.238;2023-06-14T09:06:08;8.70;;;4.15;;
21822;SDS011;11074;48.596;9.238;2023-06-14T09:08:39;4.60;;;3.67;;
21822;SDS011;11074;48.596;9.238;2023-06-14T09:11:12;8.70;;;4.18;;
21822;SDS011;11074;48.596;9.238;2023-06-14T09:13:40;7.70;;;3.97;;
21822;SDS011;11074;48.596;9.238;2023-06-14T09:16:07;6.15;;;3.90;;
21822;SDS011;11074;48.596;9.238;2023-06-14T09:18:51;5.93;;;3.72;;
21822;SDS011;11074;48.596;9.238;2023-06-14T09:21:19;7.32;;;4.20;;
21822;SDS011;11074;48.596;9.238;2023-06-14T09:23:46;5.57;;;4.18;;
21822;SDS011;11074;48.596;9.238;2023-06-14T09:26:13;9.05;;;4.30;;
21822;SDS011;11074;48.596;9.238;2023-06-14T09:28:45;5.00;;;3.78;;
21822;SDS011;11074;48.596;9.238;2023-06-14T09:31:18;5.50;;;3.65;;
21822;SDS011;11074;48.596;9.238;2023-06-14T09:33:46;10.45;;;4.15;;
21822;SDS011;11074;48.596;9.238;2023-06-14T09:36:23;8.75;;;4.03;;
21822;SDS011;11074;48.596;9.238;2023-06-14T09:38:54;8.23;;;3.67;;
21822;SDS011;11074;48.596;9.238;2023-06-14T09:41:34;5.32;;;3.90;;
21822;SDS011;11074;48.596;9.238;2023-06-14T09:44:03;5.57;;;3.70;;
21822;SDS011;11074;48.596;9.238;2023-06-14T09:46:31;6.85;;;4.07;;
21822;SDS011;11074;48.596;9.238;2023-06-14T09:48:58;8.50;;;4.05;;
21822;SDS011;11074;48.596;9.238;2023-06-14T09:51:26;5.53;;;3.72;;
21822;SDS011;11074;48.596;9.238;2023-06-14T09:53:53;4.53;;;3.45;;
21822;SDS011;11074;48.596;9.238;2023-06-14T09:56:29;5.50;;;3.67;;
21822;SDS011;11074;48.596;9.238;2023-06-14T09:59:10;6.60;;;3.25;;
21822;SDS011;11074;48.596;9.238;2023-06-14T10:01:41;5.22;;;3.78;;
21822;SDS011;11074;48.596;9.238;2023-06-14T10:04:09;5.45;;;3.53;;
21822;SDS011;11074;48.596;9.238;2023-06-14T10:06:36;7.32;;;4.03;;
21822;SDS011;11074;48.596;9.238;2023-06-14T10:09:07;7.78;;;3.90;;
21822;SDS011;11074;48.596;9.238;2023-06-14T10:11:35;5.13;;;3.38;;
21822;SDS011;11074;48.596;9.238;2023-06-14T10:14:02;5.80;;;3.53;;
21822;SDS011;11074;48.596;9.238;2023-06-14T10:16:32;9.23;;;3.50;;
21822;SDS011;11074;48.596;9.238;2023-06-14T10:19:07;5.82;;;3.30;;
21822;SDS011;11074;48.596;9.238;2023-06-14T10:21:55;7.25;;;3.28;;
21822;SDS011;11074;48.596;9.238;2023-06-14T10:24:32;4.70;;;3.00;;
21822;SDS011;11074;48.596;9.238;2023-06-14T10:27:07;4.18;;;2.92;;
21822;SDS011;11074;48.596;9.238;2023-06-14T10:32:23;6.05;;;3.05;;
21822;SDS011;11074;48.596;9.238;2023-06-14T10:37:34;5.28;;;3.33;;
21822;SDS011;11074;48.596;9.238;2023-06-14T10:40:00;5.10;;;2.75;;
21822;SDS011;11074;48.596;9.238;2023-06-14T10:42:27;3.05;;;2.58;;
21822;SDS011;11074;48.596;9.238;2023-06-14T10:44:57;7.32;;;3.15;;
21822;SDS011;11074;48.596;9.238;2023-06-14T10:47:30;5.18;;;3.30;;
21822;SDS011;11074;48.596;9.238;2023-06-14T10:50:06;8.60;;;3.55;;
21822;SDS011;11074;48.596;9.238;2023-06-14T10:52:37;4.78;;;3.10;;
21822;SDS011;11074;48.596;9.238;2023-06-14T10:55:07;7.07;;;3.67;;
21822;SDS011;11074;48.596;9.238;2023-06-14T10:57:49;6.05;;;3.72;;
21822;SDS011;11074;48.596;9.238;2023-06-14T11:00:25;4.70;;;3.70;;
21822;SDS011;11074;48.596;9.238;2023-06-14T11:06:15;6.57;;;3.50;;
21822;SDS011;11074;48.596;9.238;2023-06-14T11:08:59;4.82;;;3.85;;
21822;SDS011;11074;48.596;9.238;2023-06-14T11:12:03;3.95;;;3.05;;
21822;SDS011;11074;48.596;9.238;2023-06-14T11:14:32;7.82;;;3.53;;
21822;SDS011;11074;48.596;9.238;2023-06-14T11:16:58;5.30;;;3.60;;
21822;SDS011;11074;48.596;9.238;2023-06-14T11:19:24;7.90;;;3.35;;
21822;SDS011;11074;48.596;9.238;2023-06-14T11:21:51;6.22;;;3.70;;
21822;SDS011;11074;48.596;9.238;2023-06-14T11:24:17;7.40;;;3.80;;
21822;SDS011;11074;48.596;9.238;2023-06-14T11:26:43;4.70;;;3.15;;
21822;SDS011;11074;48.596;9.238;2023-06-14T11:29:08;6.35;;;3.45;;
21822;SDS011;11074;48.596;9.238;2023-06-14T11:31:35;3.60;;;2.95;;
21822;SDS011;11074;48.596;9.238;2023-06-14T11:34:00;4.28;;;3.58;;
21822;SDS011;11074;48.596;9.238;2023-06-14T11:36:26;6.70;;;4.05;;
21822;SDS011;11074;48.596;9.238;2023-06-14T11:39:01;6.50;;;3.70;;
21822;SDS011;11074;48.596;9.238;2023-06-14T11:41:36;5.25;;;4.07;;
21822;SDS011;11074;48.596;9.238;2023-06-14T11:44:06;5.07;;;3.25;;
21822;SDS011;11074;48.596;9.238;2023-06-14T11:46:32;5.18;;;3.75;;
21822;SDS011;11074;48.596;9.238;2023-06-14T11:48:59;4.65;;;3.60;;
21822;SDS011;11074;48.596;9.238;2023-06-14T11:51:28;5.93;;;3.63;;
21822;SDS011;11074;48.596;9.238;2023-06-14T11:53:58;6.90;;;3.90;;
21822;SDS011;11074;48.596;9.238;2023-06-14T11:56:25;4.47;;;2.97;;
21822;SDS011;11074;48.596;9.238;2023-06-14T11:58:52;7.97;;;3.92;;
21822;SDS011;11074;48.596;9.238;2023-06-14T12:01:21;6.60;;;3.75;;
21822;SDS011;11074;48.596;9.238;2023-06-14T12:03:47;4.25;;;3.20;;
21822;SDS011;11074;48.596;9.238;2023-06-14T12:06:14;4.90;;;2.90;;
21822;SDS011;11074;48.596;9.238;2023-06-14T12:08:40;3.90;;;3.10;;
21822;SDS011;11074;48.596;9.238;2023-06-14T12:11:11;5.65;;;4.05;;
21822;SDS011;11074;48.596;9.238;2023-06-14T12:13:38;5.32;;;2.92;;
21822;SDS011;11074;48.596;9.238;2023-06-14T12:16:06;4.10;;;3.33;;
21822;SDS011;11074;48.596;9.238;2023-06-14T12:18:37;3.40;;;2.85;;
21822;SDS011;11074;48.596;9.238;2023-06-14T12:21:05;5.75;;;3.58;;
21822;SDS011;11074;48.596;9.238;2023-06-14T12:23:38;6.60;;;4.35;;
21822;SDS011;11074;48.596;9.238;2023-06-14T12:26:17;4.50;;;3.80;;
21822;SDS011;11074;48.596;9.238;2023-06-14T12:28:45;5.82;;;3.95;;
21822;SDS011;11074;48.596;9.238;2023-06-14T12:31:13;4.82;;;3.90;;
21822;SDS011;11074;48.596;9.238;2023-06-14T12:33:41;6.10;;;3.78;;
21822;SDS011;11074;48.596;9.238;2023-06-14T12:36:08;4.63;;;3.85;;
21822;SDS011;11074;48.596;9.238;2023-06-14T12:38:35;5.07;;;3.78;;
21822;SDS011;11074;48.596;9.238;2023-06-14T12:41:02;6.18;;;3.67;;
21822;SDS011;11074;48.596;9.238;2023-06-14T12:43:28;4.93;;;3.40;;
21822;SDS011;11074;48.596;9.238;2023-06-14T12:45:54;4.47;;;3.80;;
21822;SDS011;11074;48.596;9.238;2023-06-14T12:48:20;5.47;;;4.00;;
21822;SDS011;11074;48.596;9.238;2023-06-14T12:50:46;7.25;;;3.88;;
21822;SDS011;11074;48.596;9.238;2023-06-14T12:53:13;6.70;;;4.00;;
21822;SDS011;11074;48.596;9.238;2023-06-14T12:55:39;5.10;;;3.65;;
21822;SDS011;11074;48.596;9.238;2023-06-14T12:58:05;8.10;;;4.00;;
21822;SDS011;11074;48.596;9.238;2023-06-14T13:00:31;6.82;;;3.50;;
21822;SDS011;11074;48.596;9.238;2023-06-14T13:02:57;6.68;;;3.90;;
21822;SDS011;11074;48.596;9.238;2023-06-14T13:05:23;5.20;;;4.00;;
21822;SDS011;11074;48.596;9.238;2023-06-14T13:07:49;7.30;;;3.88;;
21822;SDS011;11074;48.596;9.238;2023-06-14T13:10:15;7.97;;;3.50;;
21822;SDS011;11074;48.596;9.238;2023-06-14T13:12:42;6.78;;;3.83;;
21822;SDS011;11074;48.596;9.238;2023-06-14T13:15:08;8.45;;;3.88;;
21822;SDS011;11074;48.596;9.238;2023-06-14T13:17:34;8.27;;;3.85;;
21822;SDS011;11074;48.596;9.238;2023-06-14T13:20:06;5.75;;;3.65;;
21822;SDS011;11074;48.596;9.238;2023-06-14T13:22:33;8.88;;;3.85;;
21822;SDS011;11074;48.596;9.238;2023-06-14T13:25:00;4.07;;;3.42;;
21822;SDS011;11074;48.596;9.238;2023-06-14T13:27:26;7.13;;;3.45;;
21822;SDS011;11074;48.596;9.238;2023-06-14T13:29:52;5.03;;;3.80;;
21822;SDS011;11074;48.596;9.238;2023-06-14T13:32:20;6.80;;;4.13;;
21822;SDS011;11074;48.596;9.238;2023-06-14T13:34:47;6.65;;;3.88;;
21822;SDS011;11074;48.596;9.238;2023-06-14T13:37:13;5.30;;;3.45;;
21822;SDS011;11074;48.596;9.238;2023-06-14T13:39:39;5.15;;;3.35;;
21822;SDS011;11074;48.596;9.238;2023-06-14T13:42:04;3.83;;;3.25;;
21822;SDS011;11074;48.596;9.238;2023-06-14T13:44:30;5.38;;;3.50;;
21822;SDS011;11074;48.596;9.238;2023-06-14T13:46:56;5.63;;;3.63;;
21822;SDS011;11074;48.596;9.238;2023-06-14T13:49:22;7.60;;;4.07;;
21822;SDS011;11074;48.596;9.238;2023-06-14T13:51:48;5.30;;;3.50;;
21822;SDS011;11074;48.596;9.238;2023-06-14T13:54:13;7.57;;;3.53;;
21822;SDS011;11074;48.596;9.238;2023-06-14T13:56:41;4.55;;;3.70;;
21822;SDS011;11074;48.596;9.238;2023-06-14T13:59:07;4.97;;;3.50;;
21822;SDS011;11074;48.596;9.238;2023-06-14T14:01:34;4.93;;;3.67;;
21822;SDS011;11074;48.596;9.238;2023-06-14T14:04:00;5.65;;;4.00;;
21822;SDS011;11074;48.596;9.238;2023-06-14T14:06:25;4.95;;;3.60;;
21822;SDS011;11074;48.596;9.238;2023-06-14T14:08:52;4.97;;;3.45;;
21822;SDS011;11074;48.596;9.238;2023-06-14T14:11:18;5.97;;;3.90;;
21822;SDS011;11074;48.596;9.238;2023-06-14T14:13:45;6.35;;;3.28;;
21822;SDS011;11074;48.596;9.238;2023-06-14T14:16:12;6.38;;;3.28;;
21822;SDS011;11074;48.596;9.238;2023-06-14T14:18:39;6.43;;;3.72;;
21822;SDS011;11074;48.596;9.238;2023-06-14T14:21:05;6.70;;;3.30;;
21822;SDS011;11074;48.596;9.238;2023-06-14T14:23:30;5.90;;;3.33;;
21822;SDS011;11074;48.596;9.238;2023-06-14T14:25:56;7.22;;;3.78;;
21822;SDS011;11074;48.596;9.238;2023-06-14T14:28:22;6.05;;;3.53;;
21822;SDS011;11074;48.596;9.238;2023-06-14T14:30:48;4.30;;;3.30;;
21822;SDS011;11074;48.596;9.238;2023-06-14T14:33:14;4.22;;;3.50;;
21822;SDS011;11074;48.596;9.238;2023-06-14T14:35:43;5.38;;;3.80;;
21822;SDS011;11074;48.596;9.238;2023-06-14T14:38:15;6.72;;;3.72;;
21822;SDS011;11074;48.596;9.238;2023-06-14T14:40:42;5.35;;;3.95;;
21822;SDS011;11074;48.596;9.238;2023-06-14T14:43:09;5.82;;;3.55;;
21822;SDS011;11074;48.596;9.238;2023-06-14T14:45:35;6.85;;;3.85;;
21822;SDS011;11074;48.596;9.238;2023-06-14T14:48:01;6.47;;;3.50;;
21822;SDS011;11074;48.596;9.238;2023-06-14T14:50:27;4.63;;;3.40;;
21822;SDS011;11074;48.596;9.238;2023-06-14T14:52:54;4.63;;;3.50;;
21822;SDS011;11074;48.596;9.238;2023-06-14T14:55:20;6.75;;;3.42;;
21822;SDS011;11074;48.596;9.238;2023-06-14T14:57:46;6.47;;;3.63;;
21822;SDS011;11074;48.596;9.238;2023-06-14T15:00:14;5.53;;;3.92;;